Time;durP1;ratioP1;P1;durP2;ratioP2;P2;SDS_P1;SDS_P2;PMS_P1;PMS_P2;Temp;Humidity;BMP_temperature;BMP_pressure;BME280_temperature;BME280_humidity;BME280_pressure;Samples;Min_cycle;Max_cycle;Signal;HPM_P1;HPM_P2
2023/03/12 00:01:59;;;;;;;3.77;2.70;;;;;;;0.05;100.00;100179.16;5055253;28;20035;-81
2023/03/12 00:04:26;;;;;;;5.43;3.00;;;;;;;0.00;100.00;100179.13;5063043;23;20044;-80
2023/03/12 00:06:53;;;;;;;4.97;2.80;;;;;;;0.05;100.00;100176.56;5058429;28;20029;-81
2023/03/12 00:09:20;;;;;;;6.60;2.70;;;;;;;0.06;100.00;100189.56;5021448;28;20094;-81
2023/03/12 00:11:46;;;;;;;5.80;2.83;;;;;;;0.14;100.00;100187.97;5054931;28;20040;-81
2023/03/12 00:14:13;;;;;;;4.43;2.23;;;;;;;0.15;100.00;100191.44;5047817;28;20401;-80
2023/03/12 00:16:42;;;;;;;5.77;2.87;;;;;;;0.13;100.00;100196.59;5045271;28;20097;-82
2023/03/12 00:19:10;;;;;;;5.43;2.80;;;;;;;0.18;100.00;100188.91;5052819;28;20071;-82
2023/03/12 00:21:37;;;;;;;5.87;2.80;;;;;;;0.18;100.00;100197.56;5020558;28;20043;-81
2023/03/12 00:24:04;;;;;;;5.83;2.93;;;;;;;0.20;100.00;100193.25;5044359;28;20044;-81
2023/03/12 00:26:31;;;;;;;5.33;3.03;;;;;;;0.35;100.00;100191.72;5034261;28;20044;-80
2023/03/12 00:28:57;;;;;;;7.93;3.40;;;;;;;0.28;100.00;100186.44;5052964;28;20120;-81
2023/03/12 00:31:28;;;;;;;4.53;3.17;;;;;;;0.13;100.00;100198.34;5050137;28;20404;-80
2023/03/12 00:33:55;;;;;;;8.23;4.33;;;;;;;0.14;100.00;100194.88;5028367;28;20047;-81
2023/03/12 00:36:27;;;;;;;4.70;3.23;;;;;;;0.18;100.00;100194.09;5035506;28;20459;-81
2023/03/12 00:38:54;;;;;;;11.57;3.70;;;;;;;0.20;100.00;100198.44;5039957;28;20131;-80
2023/03/12 00:41:21;;;;;;;4.20;3.10;;;;;;;0.16;100.00;100195.78;5068634;28;20024;-82
2023/03/12 00:43:49;;;;;;;5.60;3.40;;;;;;;0.17;100.00;100193.22;5044015;28;20094;-81
2023/03/12 00:46:16;;;;;;;4.00;2.63;;;;;;;0.10;100.00;100186.19;5060825;28;20036;-80
2023/03/12 00:48:43;;;;;;;4.77;2.53;;;;;;;0.05;100.00;100194.75;5063404;28;20469;-81
2023/03/12 00:51:10;;;;;;;5.37;2.37;;;;;;;0.15;100.00;100205.28;5046894;28;20405;-82
2023/03/12 00:53:37;;;;;;;5.37;2.97;;;;;;;0.05;100.00;100202.53;5033085;28;20037;-82
2023/03/12 00:56:04;;;;;;;5.53;2.93;;;;;;;0.07;100.00;100204.31;5038747;28;20037;-81
2023/03/12 00:58:31;;;;;;;5.00;3.10;;;;;;;-0.02;100.00;100212.84;5028787;28;20049;-82
2023/03/12 01:00:58;;;;;;;6.30;2.77;;;;;;;-0.09;100.00;100213.59;5036993;28;20127;-81
2023/03/12 01:03:25;;;;;;;6.03;3.43;;;;;;;-0.15;100.00;100216.13;5041110;28;20055;-81
2023/03/12 01:05:54;;;;;;;4.50;2.67;;;;;;;-0.12;100.00;100218.75;5039849;28;20044;-82
2023/03/12 01:08:21;;;;;;;5.63;2.60;;;;;;;-0.05;100.00;100223.19;5049996;28;20044;-81
2023/03/12 01:10:48;;;;;;;5.03;2.60;;;;;;;-0.03;100.00;100231.88;5036234;28;20036;-82
2023/03/12 01:13:15;;;;;;;4.63;2.90;;;;;;;0.01;100.00;100230.22;5041671;28;20040;-81
2023/03/12 01:15:42;;;;;;;5.77;2.77;;;;;;;-0.03;100.00;100239.66;5063361;28;20511;-81
2023/03/12 01:18:08;;;;;;;5.20;2.50;;;;;;;0.06;100.00;100240.66;5063115;28;20055;-81
2023/03/12 01:20:35;;;;;;;7.00;3.43;;;;;;;0.11;100.00;100239.00;5042282;28;20079;-81
2023/03/12 01:23:02;;;;;;;7.07;3.40;;;;;;;0.06;100.00;100241.53;5063594;28;20036;-81
2023/03/12 01:25:29;;;;;;;5.20;3.17;;;;;;;0.05;100.00;100241.50;5058410;28;20037;-81
2023/03/12 01:27:55;;;;;;;6.73;3.10;;;;;;;-0.01;100.00;100237.06;5058262;28;20041;-81
2023/03/12 01:30:22;;;;;;;5.57;3.47;;;;;;;-0.01;100.00;100239.69;5054057;28;20036;-80
2023/03/12 01:32:50;;;;;;;4.97;2.90;;;;;;;0.12;100.00;100240.75;5016803;28;20067;-82
2023/03/12 01:35:17;;;;;;;4.60;2.80;;;;;;;-0.04;100.00;100234.44;5027424;28;20135;-81
2023/03/12 01:37:45;;;;;;;5.77;2.60;;;;;;;-0.06;100.00;100238.75;5026358;28;20076;-81
2023/03/12 01:40:17;;;;;;;5.20;2.90;;;;;;;0.12;100.00;100245.94;5063421;28;20095;-82
2023/03/12 01:42:51;;;;;;;6.60;3.30;;;;;;;0.18;100.00;100259.03;5038822;28;20155;-81
2023/03/12 01:46:09;;;;;;;4.28;2.80;;;;;;;0.19;100.00;100252.97;5055675;28;20032;-83
2023/03/12 01:48:43;;;;;;;6.83;2.90;;;;;;;0.05;100.00;100251.88;5012068;28;20048;-81
2023/03/12 01:51:12;;;;;;;6.30;3.60;;;;;;;0.15;100.00;100251.16;5056340;28;20039;-82
2023/03/12 01:53:44;;;;;;;4.50;3.17;;;;;;;0.01;100.00;100257.91;5062637;28;20781;-82
2023/03/12 01:56:12;;;;;;;6.40;3.40;;;;;;;0.04;100.00;100252.75;5056216;28;20600;-81
2023/03/12 01:58:42;;;;;;;8.23;3.50;;;;;;;0.09;100.00;100264.97;5069875;28;20040;-81
2023/03/12 02:01:09;;;;;;;5.67;3.60;;;;;;;-0.07;100.00;100258.66;5039399;28;20040;-81
2023/03/12 02:03:36;;;;;;;6.33;3.10;;;;;;;-0.11;100.00;100259.44;5023689;28;20044;-81
2023/03/12 02:06:06;;;;;;;6.07;3.20;;;;;;;-0.06;100.00;100257.78;5039603;28;20492;-82
2023/03/12 02:08:37;;;;;;;4.10;2.80;;;;;;;-0.10;100.00;100261.19;5047790;28;20513;-80
2023/03/12 02:11:04;;;;;;;3.97;3.10;;;;;;;-0.16;100.00;100268.03;5043166;28;20041;-81
2023/03/12 02:13:30;;;;;;;7.70;3.40;;;;;;;-0.11;100.00;100264.63;5057191;28;20132;-81
2023/03/12 02:15:57;;;;;;;9.67;4.10;;;;;;;-0.20;100.00;100269.66;5050463;28;20127;-82
2023/03/12 02:18:24;;;;;;;6.00;3.47;;;;;;;-0.33;100.00;100267.75;5059485;28;20485;-82
2023/03/12 02:21:07;;;;;;;4.27;2.77;;;;;;;-0.33;100.00;100276.41;5026214;28;20041;-81
2023/03/12 02:24:01;;;;;;;6.70;3.00;;;;;;;-0.36;100.00;100272.84;5039094;28;20060;-82
2023/03/12 02:26:29;;;;;;;4.93;3.00;;;;;;;-0.31;100.00;100271.22;5023012;28;20045;-82
2023/03/12 02:28:58;;;;;;;5.83;2.73;;;;;;;-0.37;100.00;100268.50;5072833;28;20032;-82
2023/03/12 02:31:27;;;;;;;6.90;4.07;;;;;;;-0.41;100.00;100267.59;5053270;28;20409;-82
2023/03/12 02:33:54;;;;;;;4.87;2.80;;;;;;;-0.45;100.00;100265.78;5062151;28;20064;-82
2023/03/12 02:36:21;;;;;;;4.30;3.10;;;;;;;-0.51;100.00;100268.25;5061165;28;20043;-83
2023/03/12 02:38:50;;;;;;;4.10;2.60;;;;;;;-0.43;100.00;100271.00;5044209;28;20122;-82
2023/03/12 02:41:20;;;;;;;4.67;2.60;;;;;;;-0.51;100.00;100278.63;5043221;28;20097;-83
2023/03/12 02:43:58;;;;;;;3.63;2.57;;;;;;;-0.52;100.00;100276.91;5049279;28;20036;-82
2023/03/12 02:46:25;;;;;;;6.87;3.00;;;;;;;-0.58;100.00;100282.00;5046089;28;20130;-83
2023/03/12 02:48:52;;;;;;;3.90;2.60;;;;;;;-0.60;100.00;100283.66;5045500;28;20044;-83
2023/03/12 02:51:19;;;;;;;4.53;2.80;;;;;;;-0.63;100.00;100289.69;5028871;28;20043;-82
2023/03/12 02:53:46;;;;;;;5.07;2.93;;;;;;;-0.64;100.00;100285.34;5038510;28;20040;-82
2023/03/12 02:56:12;;;;;;;4.43;2.60;;;;;;;-0.76;100.00;100287.69;5047357;28;20036;-82
2023/03/12 02:58:40;;;;;;;5.47;2.70;;;;;;;-0.71;100.00;100291.25;5029459;28;20052;-82
2023/03/12 03:01:07;;;;;;;6.23;3.27;;;;;;;-0.73;100.00;100297.28;5057527;28;20044;-80
2023/03/12 03:03:34;;;;;;;5.57;3.00;;;;;;;-0.89;100.00;100298.69;5066969;28;20032;-81
2023/03/12 03:06:00;;;;;;;4.47;3.20;;;;;;;-0.87;100.00;100304.78;5049587;28;20036;-81
2023/03/12 03:08:28;;;;;;;4.43;2.70;;;;;;;-0.93;100.00;100305.50;5044945;28;20405;-81
2023/03/12 03:10:55;;;;;;;7.53;3.40;;;;;;;-0.95;100.00;100311.53;5038129;28;20044;-81
2023/03/12 03:13:21;;;;;;;3.90;2.80;;;;;;;-0.92;100.00;100314.19;5049341;28;20100;-82
2023/03/12 03:15:48;;;;;;;5.97;3.00;;;;;;;-1.02;100.00;100313.09;5026529;28;20060;-81
2023/03/12 03:18:15;;;;;;;5.53;3.00;;;;;;;-1.01;100.00;100311.38;5027709;28;20047;-81
2023/03/12 03:20:43;;;;;;;4.37;3.17;;;;;;;-1.05;100.00;100315.66;5039989;28;20497;-81
2023/03/12 03:23:10;;;;;;;5.83;2.90;;;;;;;-1.04;100.00;100311.34;5037866;28;20045;-82
2023/03/12 03:25:37;;;;;;;5.03;2.90;;;;;;;-0.99;100.00;100313.19;5030702;28;20090;-81
2023/03/12 03:28:03;;;;;;;7.37;3.07;;;;;;;-1.05;100.00;100320.84;5052309;28;20041;-81
2023/03/12 03:30:31;;;;;;;6.17;3.10;;;;;;;-1.10;100.00;100334.53;5047323;28;20040;-81
2023/03/12 03:32:57;;;;;;;5.13;3.03;;;;;;;-0.94;100.00;100326.22;5035962;28;20040;-81
2023/03/12 03:35:24;;;;;;;6.80;3.20;;;;;;;-0.97;100.00;100327.06;5043827;28;20037;-81
2023/03/12 03:37:51;;;;;;;6.17;3.50;;;;;;;-0.91;100.00;100336.69;5030691;28;20052;-81
2023/03/12 03:40:18;;;;;;;5.57;3.53;;;;;;;-1.06;100.00;100334.63;5037616;28;20060;-81
2023/03/12 03:42:44;;;;;;;6.27;3.30;;;;;;;-1.14;100.00;100334.47;5051453;28;20101;-81
2023/03/12 03:45:11;;;;;;;5.30;3.07;;;;;;;-0.97;100.00;100339.16;5036866;28;20059;-80
2023/03/12 03:47:38;;;;;;;5.27;3.13;;;;;;;-1.00;100.00;100350.34;5059131;28;20052;-81
2023/03/12 03:50:05;;;;;;;8.07;3.60;;;;;;;-1.13;100.00;100337.94;5051570;28;20099;-81
2023/03/12 03:52:32;;;;;;;8.67;3.33;;;;;;;-1.19;100.00;100351.63;5043360;28;20047;-80
2023/03/12 03:54:59;;;;;;;5.57;3.10;;;;;;;-1.22;100.00;100354.16;5044324;28;20041;-81
2023/03/12 03:57:26;;;;;;;10.10;3.93;;;;;;;-1.18;100.00;100349.91;5032491;28;20413;-81
2023/03/12 03:59:53;;;;;;;5.87;3.13;;;;;;;-1.27;100.00;100360.09;5062522;28;20124;-81
2023/03/12 04:02:20;;;;;;;6.83;3.43;;;;;;;-1.29;100.00;100360.06;5046068;28;20039;-80
2023/03/12 04:04:47;;;;;;;5.90;3.13;;;;;;;-1.36;100.00;100368.53;5044628;28;20062;-81
2023/03/12 04:07:13;;;;;;;5.10;3.07;;;;;;;-1.38;100.00;100371.94;5044046;28;20116;-82
2023/03/12 04:09:40;;;;;;;5.93;3.50;;;;;;;-1.26;100.00;100369.59;5028457;28;20112;-80
2023/03/12 04:12:08;;;;;;;7.87;3.70;;;;;;;-1.41;100.00;100359.78;5028465;28;20048;-81
2023/03/12 04:14:38;;;;;;;5.83;3.23;;;;;;;-1.43;100.00;100364.94;5045933;28;20061;-81
2023/03/12 04:17:05;;;;;;;6.50;3.83;;;;;;;-1.44;100.00;100372.66;5044303;28;20048;-81
2023/03/12 04:19:31;;;;;;;6.27;3.80;;;;;;;-1.43;100.00;100364.03;5048502;28;20052;-80
2023/03/12 04:21:58;;;;;;;5.73;3.67;;;;;;;-1.42;100.00;100358.03;5036111;28;20397;-81
2023/03/12 04:24:25;;;;;;;7.60;3.70;;;;;;;-1.51;100.00;100369.06;5050661;28;20492;-82
2023/03/12 04:26:52;;;;;;;6.80;3.67;;;;;;;-1.50;100.00;100360.47;5041896;28;20036;-82
2023/03/12 04:29:18;;;;;;;7.07;3.67;;;;;;;-1.56;100.00;100370.66;5031180;28;20041;-83
2023/03/12 04:31:45;;;;;;;7.67;3.77;;;;;;;-1.61;100.00;100377.44;5038083;28;20044;-81
2023/03/12 04:34:12;;;;;;;6.90;3.40;;;;;;;-1.60;100.00;100374.00;5048888;28;20641;-81
2023/03/12 04:36:40;;;;;;;7.47;3.73;;;;;;;-1.64;100.00;100376.50;5041536;28;20108;-82
2023/03/12 04:39:07;;;;;;;6.43;3.43;;;;;;;-1.73;100.00;100372.84;5042109;28;20104;-81
2023/03/12 04:41:34;;;;;;;5.90;3.73;;;;;;;-1.68;100.00;100379.84;5038133;28;20043;-81
2023/03/12 04:44:02;;;;;;;6.13;3.27;;;;;;;-1.74;100.00;100383.19;5036053;28;20033;-82
2023/03/12 04:46:29;;;;;;;8.27;3.77;;;;;;;-1.76;100.00;100382.28;5049175;28;20055;-82
2023/03/12 04:48:57;;;;;;;5.97;3.63;;;;;;;-1.74;100.00;100388.38;5037241;28;20508;-81
2023/03/12 04:51:23;;;;;;;7.23;3.80;;;;;;;-1.73;100.00;100396.16;5064113;28;20040;-82
2023/03/12 04:53:50;;;;;;;6.50;3.47;;;;;;;-1.73;100.00;100395.28;5047852;28;20036;-81
2023/03/12 04:56:17;;;;;;;6.63;3.30;;;;;;;-1.74;100.00;100398.72;5049205;28;20032;-83
2023/03/12 04:58:44;;;;;;;5.87;3.73;;;;;;;-1.79;100.00;100398.59;5047307;28;20073;-81
2023/03/12 05:01:20;;;;;;;7.63;4.40;;;;;;;-1.86;100.00;100395.81;5059191;28;20032;-82
2023/03/12 05:03:46;;;;;;;7.10;3.77;;;;;;;-1.93;100.00;100399.97;5063584;28;20070;-81
2023/03/12 05:06:13;;;;;;;10.90;4.47;;;;;;;-1.93;100.00;100396.47;5043323;28;20040;-81
2023/03/12 05:08:40;;;;;;;8.07;4.80;;;;;;;-1.93;100.00;100397.38;5026984;28;20048;-81
2023/03/12 05:11:06;;;;;;;8.90;4.13;;;;;;;-1.88;100.00;100400.06;5059173;28;20075;-81
2023/03/12 05:13:33;;;;;;;8.73;3.57;;;;;;;-1.92;100.00;100399.13;5032658;28;20652;-83
2023/03/12 05:16:00;;;;;;;9.43;4.20;;;;;;;-1.87;100.00;100401.81;5043846;28;20063;-81
2023/03/12 05:18:26;;;;;;;6.10;3.70;;;;;;;-1.94;100.00;100402.50;5033052;28;20459;-81
2023/03/12 05:21:01;;;;;;;7.13;3.60;;;;;;;-1.88;100.00;100402.66;5033015;28;20094;-81
2023/03/12 05:23:28;;;;;;;9.40;4.60;;;;;;;-1.89;100.00;100403.50;5037872;28;20040;-82
2023/03/12 05:25:55;;;;;;;7.97;4.70;;;;;;;-1.88;100.00;100402.66;5045779;28;20036;-82
2023/03/12 05:28:26;;;;;;;6.80;3.37;;;;;;;-1.98;100.00;100411.91;5044535;28;20044;-83
2023/03/12 05:30:54;;;;;;;6.73;3.30;;;;;;;-2.00;100.00;100419.66;5043779;28;20044;-82
2023/03/12 05:33:21;;;;;;;10.50;4.23;;;;;;;-2.05;100.00;100410.88;5044949;28;20040;-82
2023/03/12 05:35:48;;;;;;;6.67;4.20;;;;;;;-2.08;100.00;100415.09;5039082;28;20040;-83
2023/03/12 05:38:15;;;;;;;8.60;4.63;;;;;;;-2.10;100.00;100414.16;5048422;28;20098;-81
2023/03/12 05:40:42;;;;;;;7.63;4.47;;;;;;;-2.07;100.00;100409.09;5028294;28;20098;-82
2023/03/12 05:43:08;;;;;;;9.00;4.33;;;;;;;-2.06;100.00;100416.00;5047963;28;20066;-83
2023/03/12 05:45:35;;;;;;;11.23;4.90;;;;;;;-2.09;100.00;100419.41;5050163;28;20578;-81
2023/03/12 05:48:02;;;;;;;9.13;4.80;;;;;;;-2.04;100.00;100415.22;5061719;28;20036;-80
2023/03/12 05:50:29;;;;;;;7.57;4.60;;;;;;;-2.09;100.00;100422.00;5045229;28;20045;-82
2023/03/12 05:52:55;;;;;;;8.13;4.17;;;;;;;-2.08;100.00;100423.75;5062119;28;20062;-82
2023/03/12 05:55:22;;;;;;;7.83;4.53;;;;;;;-2.06;100.00;100416.88;5036668;28;20047;-81
2023/03/12 05:57:49;;;;;;;10.07;4.37;;;;;;;-2.07;100.00;100432.38;5032784;28;20048;-82
2023/03/12 06:00:16;;;;;;;6.90;4.10;;;;;;;-2.09;100.00;100429.75;5062020;28;20037;-80
2023/03/12 06:02:42;;;;;;;9.07;4.73;;;;;;;-2.05;100.00;100428.13;5037260;28;20033;-83
2023/03/12 06:05:10;;;;;;;8.43;4.57;;;;;;;-2.07;100.00;100432.38;5062140;28;20068;-83
2023/03/12 06:07:37;;;;;;;6.87;4.20;;;;;;;-2.00;100.00;100431.72;5047622;28;20539;-82
2023/03/12 06:10:04;;;;;;;10.23;4.40;;;;;;;-2.01;100.00;100429.97;5030704;28;20485;-81
2023/03/12 06:12:31;;;;;;;9.20;4.67;;;;;;;-1.98;100.00;100432.63;5035660;28;20033;-83
2023/03/12 06:14:58;;;;;;;9.83;4.13;;;;;;;-1.99;100.00;100429.16;5033218;28;20052;-82
2023/03/12 06:17:24;;;;;;;9.43;5.43;;;;;;;-1.87;100.00;100438.06;5048120;28;20047;-81
2023/03/12 06:19:54;;;;;;;10.43;5.43;;;;;;;-1.87;100.00;100433.78;5031565;28;20040;-82
2023/03/12 06:22:20;;;;;;;12.93;4.97;;;;;;;-1.84;100.00;100438.19;5026650;28;20039;-82
2023/03/12 06:24:47;;;;;;;7.90;5.00;;;;;;;-1.86;100.00;100440.69;5039256;28;20040;-84
2023/03/12 06:27:15;;;;;;;10.47;5.30;;;;;;;-1.76;100.00;100428.88;5026621;28;20043;-84
2023/03/12 06:29:41;;;;;;;6.43;4.17;;;;;;;-1.82;100.00;100431.31;5032120;28;20548;-83
2023/03/12 06:32:08;;;;;;;8.70;4.97;;;;;;;-1.66;100.00;100441.22;5055906;28;20037;-83
2023/03/12 06:34:35;;;;;;;16.37;6.67;;;;;;;-1.55;100.00;100442.34;5042788;28;20040;-83
2023/03/12 06:37:01;;;;;;;10.33;5.70;;;;;;;-1.52;100.00;100445.00;5040862;28;20040;-83
2023/03/12 06:39:28;;;;;;;11.57;6.10;;;;;;;-1.57;100.00;100440.56;5038560;28;20083;-83
2023/03/12 06:41:55;;;;;;;11.23;6.77;;;;;;;-1.55;100.00;100444.94;5039336;28;20396;-83
2023/03/12 06:44:22;;;;;;;12.17;5.93;;;;;;;-1.41;100.00;100442.72;5024645;28;20109;-83
2023/03/12 06:46:49;;;;;;;13.80;7.77;;;;;;;-1.41;100.00;100455.66;5042952;28;20064;-83
2023/03/12 06:49:16;;;;;;;24.33;11.17;;;;;;;-1.47;100.00;100452.91;5039961;28;20045;-82
2023/03/12 06:51:42;;;;;;;18.07;9.17;;;;;;;-1.40;100.00;100452.22;5024370;28;20501;-82
2023/03/12 06:54:09;;;;;;;13.60;6.87;;;;;;;-1.25;100.00;100456.91;5019249;28;20045;-82
2023/03/12 06:56:36;;;;;;;12.07;7.30;;;;;;;-1.28;100.00;100455.09;5054309;28;20557;-83
2023/03/12 06:59:03;;;;;;;11.57;6.50;;;;;;;-1.18;100.00;100444.13;5021764;28;20051;-82
2023/03/12 07:01:30;;;;;;;19.37;6.77;;;;;;;-1.22;100.00;100447.47;5022224;28;20067;-83
2023/03/12 07:03:57;;;;;;;12.33;6.77;;;;;;;-1.18;100.00;100451.91;5026118;28;20133;-82
2023/03/12 07:06:24;;;;;;;13.03;6.73;;;;;;;-1.04;100.00;100446.16;5038114;28;20043;-83
2023/03/12 07:08:51;;;;;;;12.30;7.17;;;;;;;-1.05;100.00;100457.38;5024160;28;20135;-81
2023/03/12 07:11:18;;;;;;;16.23;6.43;;;;;;;-0.97;100.00;100450.63;5023884;28;20044;-82
2023/03/12 07:13:44;;;;;;;14.97;7.17;;;;;;;-0.79;100.00;100453.63;5039785;28;20037;-82
2023/03/12 07:16:11;;;;;;;11.17;6.70;;;;;;;-0.74;100.00;100446.84;5046726;28;20044;-81
2023/03/12 07:18:38;;;;;;;12.13;6.23;;;;;;;-0.63;100.00;100442.75;5034727;28;20064;-81
2023/03/12 07:21:05;;;;;;;10.30;5.70;;;;;;;-0.60;100.00;100444.53;5040950;28;20052;-82
2023/03/12 07:23:31;;;;;;;12.90;5.70;;;;;;;-0.43;100.00;100450.94;5039580;28;20476;-81
2023/03/12 07:25:58;;;;;;;10.73;4.80;;;;;;;-0.30;100.00;100459.88;5047542;28;20070;-82
2023/03/12 07:28:25;;;;;;;59.27;29.50;;;;;;;-0.05;100.00;100451.69;5034559;28;20037;-84
2023/03/12 07:30:51;;;;;;;15.93;10.77;;;;;;;0.14;100.00;100459.84;5021856;28;20057;-81
2023/03/12 07:33:19;;;;;;;9.03;7.03;;;;;;;0.30;100.00;100463.59;5058257;28;20028;-82
2023/03/12 07:35:47;;;;;;;9.47;6.27;;;;;;;0.33;100.00;100459.31;5039959;28;20037;-81
2023/03/12 07:38:17;;;;;;;9.10;5.60;;;;;;;0.70;100.00;100459.94;5056052;28;20050;-82
2023/03/12 07:40:44;;;;;;;8.50;4.87;;;;;;;0.75;100.00;100460.88;5024196;28;20033;-81
2023/03/12 07:43:11;;;;;;;6.27;4.30;;;;;;;0.89;100.00;100463.69;5037640;28;20060;-81
2023/03/12 07:45:38;;;;;;;6.23;4.00;;;;;;;1.02;100.00;100463.94;5021470;28;20060;-81
2023/03/12 07:48:05;;;;;;;12.53;6.73;;;;;;;1.16;100.00;100464.09;5037284;28;20041;-81
2023/03/12 07:50:33;;;;;;;9.67;4.50;;;;;;;1.22;100.00;100463.31;5035598;28;20064;-80
2023/03/12 07:53:00;;;;;;;6.73;4.50;;;;;;;1.31;100.00;100466.94;5028365;28;20071;-81
2023/03/12 07:55:27;;;;;;;5.97;4.00;;;;;;;1.28;100.00;100464.28;5060532;28;20043;-81
2023/03/12 07:57:57;;;;;;;7.00;3.80;;;;;;;1.32;100.00;100470.41;5046722;28;20567;-82
2023/03/12 08:00:25;;;;;;;7.83;4.17;;;;;;;1.30;100.00;100473.00;5048397;28;20493;-79
2023/03/12 08:02:52;;;;;;;5.87;3.60;;;;;;;1.35;100.00;100473.94;5059461;28;20053;-84
2023/03/12 08:05:23;;;;;;;6.23;3.63;;;;;;;1.47;100.00;100473.22;5032851;28;20040;-83
2023/03/12 08:07:51;;;;;;;6.20;3.70;;;;;;;1.56;100.00;100475.06;5026440;28;20106;-83
2023/03/12 08:10:18;;;;;;;7.83;4.47;;;;;;;1.55;100.00;100471.59;5028299;28;20496;-83
2023/03/12 08:12:45;;;;;;;6.13;4.33;;;;;;;1.57;100.00;100474.22;5027002;28;20044;-83
2023/03/12 08:15:12;;;;;;;6.07;4.20;;;;;;;1.64;100.00;100479.53;5041490;28;20048;-82
2023/03/12 08:17:39;;;;;;;6.87;4.10;;;;;;;1.80;100.00;100475.38;5042568;28;20048;-80
2023/03/12 08:20:09;;;;;;;7.33;3.90;;;;;;;1.78;100.00;100476.22;5043673;28;20071;-82
2023/03/12 08:22:36;;;;;;;5.63;2.87;;;;;;;1.84;100.00;100479.75;5060582;28;20040;-82
2023/03/12 08:25:04;;;;;;;5.47;2.80;;;;;;;1.94;100.00;100478.16;5028854;28;20063;-82
2023/03/12 08:27:32;;;;;;;5.93;3.50;;;;;;;1.98;100.00;100482.53;5026630;28;20090;-82
2023/03/12 08:29:59;;;;;;;4.83;2.70;;;;;;;1.93;100.00;100485.09;5027424;28;20413;-81
2023/03/12 08:32:25;;;;;;;5.37;2.80;;;;;;;1.95;100.00;100483.38;5042270;28;20102;-83
2023/03/12 08:34:52;;;;;;;5.07;2.70;;;;;;;1.94;97.18;100480.75;5024735;28;20143;-83
2023/03/12 08:37:19;;;;;;;3.53;2.27;;;;;;;2.07;94.42;100471.34;5046428;28;20097;-82
2023/03/12 08:39:46;;;;;;;4.63;2.00;;;;;;;2.09;96.42;100483.50;5023040;28;20045;-84
2023/03/12 08:42:12;;;;;;;5.77;2.10;;;;;;;2.19;94.59;100482.78;5039874;28;20040;-82
2023/03/12 08:44:39;;;;;;;4.10;2.30;;;;;;;2.13;91.96;100494.88;5058699;28;20094;-84
2023/03/12 08:47:05;;;;;;;6.90;2.10;;;;;;;2.20;91.45;100479.31;5040552;28;20489;-83
2023/03/12 08:49:32;;;;;;;5.23;2.03;;;;;;;2.29;88.91;100482.88;5026284;28;20044;-83
2023/03/12 08:51:59;;;;;;;67.50;34.47;;;;;;;2.38;87.06;100485.56;5028873;28;20078;-82
2023/03/12 08:54:26;;;;;;;68.77;34.00;;;;;;;2.54;87.18;100475.28;5044052;28;20377;-82
2023/03/12 08:56:52;;;;;;;8.83;3.33;;;;;;;2.71;83.40;100483.28;5044065;28;20516;-81
2023/03/12 08:59:21;;;;;;;4.50;2.50;;;;;;;2.94;83.33;100482.56;5041544;28;20040;-81
2023/03/12 09:01:47;;;;;;;8.67;2.30;;;;;;;3.13;84.79;100478.38;5040058;28;20041;-80
2023/03/12 09:04:14;;;;;;;5.23;2.37;;;;;;;3.34;80.33;100476.75;5027274;28;20036;-82
2023/03/12 09:06:42;;;;;;;4.63;1.93;;;;;;;3.44;80.35;100475.06;5020358;28;20118;-82
2023/03/12 09:09:08;;;;;;;8.23;2.83;;;;;;;3.51;80.72;100469.00;5054560;28;20039;-82
2023/03/12 09:11:38;;;;;;;4.40;1.67;;;;;;;3.61;79.78;100475.16;5023166;28;20059;-81
2023/03/12 09:14:05;;;;;;;3.50;2.10;;;;;;;3.73;76.49;100479.56;5027862;28;20036;-82
2023/03/12 09:16:51;;;;;;;5.27;2.43;;;;;;;3.67;79.65;100481.28;5042078;28;20051;-80
2023/03/12 09:19:19;;;;;;;3.80;2.80;;;;;;;3.78;73.98;100477.84;5023279;28;20153;-81
2023/03/12 09:21:46;;;;;;;4.17;1.53;;;;;;;3.77;73.24;100487.41;5041382;28;20422;-81
2023/03/12 09:24:12;;;;;;;10.63;2.13;;;;;;;3.69;75.18;100478.66;5055127;28;20040;-80
2023/03/12 09:26:39;;;;;;;5.23;2.10;;;;;;;3.76;77.11;100487.41;5026380;28;20043;-81
2023/03/12 09:29:05;;;;;;;5.47;1.73;;;;;;;3.86;76.67;100479.59;5106185;23;20040;-80
2023/03/12 09:31:33;;;;;;;4.50;1.63;;;;;;;4.01;76.57;100476.19;5046282;28;20048;-80
2023/03/12 09:34:00;;;;;;;7.73;2.17;;;;;;;4.04;75.92;100477.97;5050865;28;20040;-80
2023/03/12 09:36:27;;;;;;;5.60;1.63;;;;;;;4.15;76.52;100476.25;5027157;28;20259;-80
2023/03/12 09:38:54;;;;;;;6.73;3.10;;;;;;;4.24;75.48;100479.75;4998926;28;20501;-80
2023/03/12 09:41:24;;;;;;;4.70;2.60;;;;;;;4.32;75.53;100479.75;5014545;28;20040;-80
2023/03/12 09:43:56;;;;;;;2.57;1.80;;;;;;;4.47;70.00;100477.19;5018365;28;20041;-80
2023/03/12 09:46:32;;;;;;;3.43;2.13;;;;;;;4.54;74.14;100478.06;5013659;28;20501;-80
2023/03/12 09:49:01;;;;;;;3.43;1.70;;;;;;;4.67;74.46;100476.31;5035226;28;20086;-79
2023/03/12 09:51:33;;;;;;;5.30;1.40;;;;;;;4.66;74.03;100485.91;5053136;28;20049;-80
2023/03/12 09:54:03;;;;;;;5.57;1.50;;;;;;;4.62;69.65;100471.06;4999082;28;20074;-80
2023/03/12 09:56:30;;;;;;;3.73;1.40;;;;;;;4.59;71.99;100468.47;5039659;28;20058;-80
2023/03/12 09:58:56;;;;;;;2.63;1.50;;;;;;;4.57;73.09;100467.59;5022638;28;20039;-80
2023/03/12 10:01:45;;;;;;;5.30;1.63;;;;;;;4.55;73.00;100465.84;5031443;28;20053;-82
2023/03/12 10:04:23;;;;;;;5.13;1.70;;;;;;;4.61;74.58;100463.22;5009815;28;20520;-81
2023/03/12 10:07:22;;;;;;;3.57;1.87;;;;;;;4.76;75.43;100463.22;5061320;28;20517;-81
2023/03/12 10:10:26;;;;;;;3.00;1.77;;;;;;;4.75;73.86;100462.34;5062247;28;20492;-81
2023/03/12 10:13:00;;;;;;;5.53;2.03;;;;;;;4.83;73.31;100464.97;5037717;28;20033;-81
2023/03/12 10:15:54;;;;;;;5.53;3.55;;;;;;;4.96;71.06;100455.34;5054133;23;20047;-81
2023/03/12 10:18:45;;;;;;;3.83;1.70;;;;;;;4.98;70.10;100459.75;5037046;28;20047;-80
2023/03/12 10:21:34;;;;;;;3.97;2.10;;;;;;;4.91;71.06;100452.75;5040368;28;20643;-80
2023/03/12 10:24:10;;;;;;;4.00;1.80;;;;;;;5.01;72.79;100458.84;5059697;28;20037;-81
2023/03/12 10:26:39;;;;;;;5.70;3.20;;;;;;;5.15;70.67;100464.09;5045127;28;20523;-82
2023/03/12 10:29:16;;;;;;;4.83;3.33;;;;;;;5.24;71.39;100470.19;5041532;28;20526;-81
2023/03/12 10:31:54;;;;;;;5.47;3.13;;;;;;;5.24;71.41;100469.31;5022425;28;20409;-79
2023/03/12 10:34:36;;;;;;;4.97;2.67;;;;;;;5.25;71.51;100455.34;5069706;28;20033;-82
2023/03/12 10:37:41;;;;;;;5.93;3.63;;;;;;;5.42;73.32;100453.53;5046503;28;20451;-81
2023/03/12 10:40:33;;;;;;;6.53;2.83;;;;;;;5.54;72.60;100450.00;5056326;28;20485;-80
2023/03/12 10:43:01;;;;;;;6.83;3.30;;;;;;;5.62;68.25;100441.22;5063432;28;20036;-80
2023/03/12 10:46:01;;;;;;;4.13;2.43;;;;;;;5.63;65.32;100442.09;5049408;28;20033;-79
2023/03/12 10:48:27;;;;;;;4.50;2.20;;;;;;;5.46;64.73;100438.66;5050952;28;20136;-81
2023/03/12 10:51:00;;;;;;;4.30;1.43;;;;;;;5.36;65.48;100441.31;5049864;28;20054;-80
2023/03/12 10:53:38;;;;;;;3.13;1.73;;;;;;;5.23;67.23;100442.25;5046067;28;20585;-80
2023/03/12 10:56:16;;;;;;;3.23;2.00;;;;;;;5.11;69.07;100446.63;5030029;28;20049;-80
2023/03/12 10:58:48;;;;;;;2.53;1.60;;;;;;;5.12;67.70;100438.75;5054982;28;20139;-80
2023/03/12 11:01:28;;;;;;;3.13;1.97;;;;;;;4.96;68.48;100439.66;5045493;28;20104;-80
2023/03/12 11:04:21;;;;;;;5.53;1.70;;;;;;;5.07;68.16;100443.16;5045882;28;20060;-81
2023/03/12 11:07:20;;;;;;;4.20;1.63;;;;;;;5.12;68.19;100427.41;5024987;28;20497;-80
2023/03/12 11:10:07;;;;;;;4.97;1.70;;;;;;;5.12;70.44;100436.13;5040297;28;20080;-80
2023/03/12 11:12:35;;;;;;;5.27;2.63;;;;;;;5.34;69.14;100436.97;5054450;28;20508;-80
2023/03/12 11:15:27;;;;;;;5.27;3.30;;;;;;;5.82;69.81;100409.72;5022618;28;20036;-80
2023/03/12 11:18:22;;;;;;;9.07;2.30;;;;;;;6.01;67.96;100400.00;5071688;28;20051;-79
2023/03/12 11:20:51;;;;;;;;;;;;;;;5.98;65.61;100410.53;5023386;28;20532;-79
2023/03/12 11:23:29;;;;;;;2.63;1.90;;;;;;;5.67;67.60;100416.78;5040541;28;20003;-79
2023/03/12 11:25:59;;;;;;;4.77;2.40;;;;;;;5.64;66.30;100415.91;5032286;28;20353;-79
2023/03/12 11:28:42;;;;;;;1.87;1.20;;;;;;;5.72;65.86;100409.72;5053743;28;20098;-78
2023/03/12 11:31:17;;;;;;;3.87;1.57;;;;;;;5.77;69.31;100406.22;5022496;28;20051;-78
2023/03/12 11:33:44;;;;;;;7.00;2.47;;;;;;;5.76;65.92;100403.63;5055204;28;20041;-79